Time;durP1;ratioP1;P1;durP2;ratioP2;P2;SDS_P1;SDS_P2;PMS_P1;PMS_P2;Temp;Humidity;BMP_temperature;BMP_pressure;BME280_temperature;BME280_humidity;BME280_pressure;Samples;Min_cycle;Max_cycle;Signal;HPM_P1;HPM_P2
2023/08/17 00:01:24;;;;;;;6.47;5.87;;;22.70;99.90;;;;;;5031606;28;20499;-83
2023/08/17 00:04:18;;;;;;;6.50;5.90;;;22.50;99.90;;;;;;5013344;28;20453;-83
2023/08/17 00:07:06;;;;;;;6.67;5.97;;;22.60;99.90;;;;;;5025399;28;20564;-84
2023/08/17 00:10:03;;;;;;;8.23;6.00;;;22.80;99.90;;;;;;5017023;28;20461;-82
2023/08/17 00:12:52;;;;;;;6.03;5.50;;;22.90;99.90;;;;;;5016420;28;20572;-81
2023/08/17 00:15:49;;;;;;;6.40;5.83;;;22.70;99.90;;;;;;5015896;28;20543;-81
2023/08/17 00:18:27;;;;;;;6.50;5.77;;;22.90;99.90;;;;;;5021966;28;20446;-82
2023/08/17 00:21:00;;;;;;;6.73;5.13;;;23.30;99.90;;;;;;5016582;28;20453;-82
2023/08/17 00:23:51;;;;;;;5.93;5.37;;;22.60;99.90;;;;;;5017419;28;20465;-82
2023/08/17 00:26:23;;;;;;;5.80;5.20;;;23.10;99.90;;;;;;5022933;28;20519;-83
2023/08/17 00:29:14;;;;;;;5.83;4.57;;;23.20;99.90;;;;;;5017741;28;20517;-81
2023/08/17 00:32:33;;;;;;;5.20;4.70;;;23.00;99.90;;;;;;4934341;28;21031;-83
2023/08/17 00:35:20;;;;;;;5.80;5.30;;;23.50;99.90;;;;;;4944415;28;20550;-84
2023/08/17 00:37:53;;;;;;;5.73;5.10;;;22.40;99.90;;;;;;5019854;28;20465;-84
2023/08/17 00:40:34;;;;;;;6.27;5.03;;;23.10;99.90;;;;;;5020652;28;20461;-81
2023/08/17 00:43:26;;;;;;;5.47;4.97;;;22.40;99.90;;;;;;5022772;28;20454;-81
2023/08/17 00:46:15;;;;;;;6.40;5.50;;;21.70;99.90;;;;;;5019236;28;20500;-83
2023/08/17 00:48:51;;;;;;;6.50;5.40;;;22.70;99.90;;;;;;5020509;28;20449;-80
2023/08/17 00:51:27;;;;;;;5.33;4.93;;;23.00;99.90;;;;;;5023713;28;20480;-82
2023/08/17 00:54:16;;;;;;;6.00;5.20;;;22.50;99.90;;;;;;5022082;28;21036;-84
2023/08/17 00:57:10;;;;;;;5.73;4.90;;;22.20;99.90;;;;;;5019725;28;20488;-83
2023/08/17 01:00:03;;;;;;;5.23;4.60;;;22.60;99.90;;;;;;5022448;28;20449;-83
2023/08/17 01:03:06;;;;;;;5.37;4.97;;;21.90;99.90;;;;;;5025067;28;20486;-85
2023/08/17 01:05:37;;;;;;;5.40;5.00;;;22.70;99.90;;;;;;5024256;28;20465;-84
2023/08/17 01:08:15;;;;;;;6.47;5.87;;;23.10;99.90;;;;;;5021774;28;20576;-85
2023/08/17 01:11:17;;;;;;;6.07;5.50;;;23.10;99.90;;;;;;5018233;28;20429;-84
2023/08/17 01:14:03;;;;;;;6.33;5.20;;;22.60;99.90;;;;;;5025288;28;21195;-86
2023/08/17 01:17:01;;;;;;;5.43;4.93;;;22.50;99.90;;;;;;5029747;28;20818;-83
2023/08/17 01:19:38;;;;;;;10.23;5.30;;;22.20;99.90;;;;;;5034761;28;20916;-85
2023/08/17 01:22:21;;;;;;;8.67;5.20;;;23.20;99.90;;;;;;5032793;28;20539;-84
2023/08/17 01:25:06;;;;;;;5.67;5.03;;;22.30;99.90;;;;;;5050181;28;20460;-84
2023/08/17 01:27:51;;;;;;;5.40;5.00;;;22.40;99.90;;;;;;4997413;26;20486;-83
2023/08/17 01:30:26;;;;;;;5.23;4.83;;;23.40;99.90;;;;;;5000748;28;20443;-84
2023/08/17 01:33:17;;;;;;;5.57;5.00;;;22.30;99.90;;;;;;4996652;28;20498;-82
2023/08/17 01:36:39;;;;;;;7.00;5.50;;;21.90;99.90;;;;;;4996168;28;20490;-82
2023/08/17 01:39:27;;;;;;;5.77;5.00;;;21.40;99.90;;;;;;4997030;28;20446;-85
2023/08/17 01:42:04;;;;;;;5.23;4.73;;;21.90;99.90;;;;;;5001701;28;20494;-83
2023/08/17 01:44:51;;;;;;;4.70;4.20;;;22.40;99.90;;;;;;5017302;28;20455;-84
2023/08/17 01:47:37;;;;;;;4.97;4.57;;;22.20;99.90;;;;;;5005056;28;20474;-84
2023/08/17 01:50:09;;;;;;;4.80;4.40;;;23.30;99.90;;;;;;5005825;28;20541;-84
2023/08/17 01:53:04;;;;;;;4.90;3.97;;;22.20;99.90;;;;;;5003102;28;20481;-84
2023/08/17 01:55:35;;;;;;;5.13;4.03;;;22.40;99.90;;;;;;4998495;28;20471;-84
2023/08/17 01:58:17;;;;;;;4.73;3.97;;;21.90;99.90;;;;;;5008724;28;20454;-84
2023/08/17 02:00:50;;;;;;;4.10;3.80;;;22.20;99.90;;;;;;5001136;28;21056;-85
2023/08/17 02:03:19;;;;;;;4.53;4.23;;;22.40;99.90;;;;;;5013272;28;20545;-84
2023/08/17 02:05:52;;;;;;;4.20;3.90;;;22.30;99.90;;;;;;5006193;28;20454;-83
2023/08/17 02:08:33;;;;;;;4.27;3.70;;;22.40;99.90;;;;;;5008136;28;20454;-83
2023/08/17 02:11:04;;;;;;;5.23;3.90;;;21.70;99.90;;;;;;5010126;28;20462;-82
2023/08/17 02:13:36;;;;;;;4.23;3.83;;;22.00;99.90;;;;;;5008453;28;20490;-84
2023/08/17 02:16:27;;;;;;;4.40;4.00;;;22.20;99.90;;;;;;5002921;28;20470;-82
2023/08/17 02:19:03;;;;;;;5.07;4.57;;;21.70;99.90;;;;;;5013146;28;20513;-84
2023/08/17 02:21:33;;;;;;;5.40;4.40;;;22.40;99.90;;;;;;5009887;28;21671;-83
2023/08/17 02:24:10;;;;;;;5.50;4.03;;;22.30;99.90;;;;;;4991683;28;20486;-84
2023/08/17 02:26:40;;;;;;;5.67;4.80;;;22.10;99.90;;;;;;5003262;28;20486;-82
2023/08/17 02:29:13;;;;;;;4.57;4.23;;;22.70;99.90;;;;;;4991973;28;21001;-83
2023/08/17 02:31:58;;;;;;;4.90;4.40;;;22.00;99.90;;;;;;5004520;28;20493;-82
2023/08/17 02:34:30;;;;;;;5.03;4.60;;;21.70;99.90;;;;;;4990219;28;20447;-84
2023/08/17 02:36:59;;;;;;;6.77;4.63;;;22.20;99.90;;;;;;4996147;28;20455;-82
2023/08/17 02:39:40;;;;;;;4.20;3.90;;;21.60;99.90;;;;;;4987947;28;20509;-84
2023/08/17 02:42:12;;;;;;;4.10;3.73;;;21.40;99.90;;;;;;4986752;28;20941;-83
2023/08/17 02:44:53;;;;;;;5.10;3.90;;;22.00;99.90;;;;;;4989538;28;20486;-83
2023/08/17 02:47:22;;;;;;;4.70;4.30;;;22.60;99.90;;;;;;4992317;28;20962;-83
2023/08/17 02:49:50;;;;;;;4.53;4.13;;;21.80;99.90;;;;;;5013163;28;20478;-82
2023/08/17 02:52:23;;;;;;;5.63;3.80;;;22.00;99.90;;;;;;4997390;28;20487;-82
2023/08/17 02:54:53;;;;;;;4.63;3.90;;;22.10;99.90;;;;;;4998652;28;20451;-85
2023/08/17 02:57:23;;;;;;;4.80;4.27;;;21.60;99.90;;;;;;4997161;28;20483;-84
2023/08/17 02:59:53;;;;;;;4.20;3.90;;;22.60;99.90;;;;;;5001115;28;20427;-85
2023/08/17 03:02:28;;;;;;;5.80;4.40;;;21.90;99.90;;;;;;4996043;28;20502;-83
2023/08/17 03:05:20;;;;;;;4.77;4.30;;;21.70;99.90;;;;;;4978001;28;20510;-83
2023/08/17 03:07:57;;;;;;;4.77;4.37;;;22.20;99.90;;;;;;5003875;28;20489;-85
2023/08/17 03:10:27;;;;;;;4.60;4.00;;;22.60;99.90;;;;;;4987398;28;21084;-84
2023/08/17 03:12:56;;;;;;;6.17;4.20;;;22.50;99.90;;;;;;5001211;28;21041;-82
2023/08/17 03:15:28;;;;;;;4.30;3.90;;;21.60;99.90;;;;;;4991192;28;20634;-85
2023/08/17 03:17:59;;;;;;;4.27;3.87;;;21.30;99.90;;;;;;5002373;28;20467;-82
2023/08/17 03:20:39;;;;;;;6.60;4.40;;;21.90;99.90;;;;;;4988721;28;20462;-83
2023/08/17 03:23:35;;;;;;;4.60;4.17;;;21.50;99.90;;;;;;5012399;28;20481;-82
2023/08/17 03:26:37;;;;;;;4.83;4.33;;;21.50;99.90;;;;;;4992315;28;20612;-84
2023/08/17 03:29:12;;;;;;;4.73;4.33;;;21.50;99.90;;;;;;5002898;28;20486;-80
2023/08/17 03:31:59;;;;;;;4.13;3.70;;;21.50;99.90;;;;;;4993661;28;20494;-85
2023/08/17 03:34:45;;;;;;;5.13;4.20;;;21.60;99.90;;;;;;4988585;28;20531;-84
2023/08/17 03:37:23;;;;;;;5.13;4.73;;;22.80;99.90;;;;;;4991134;28;20544;-81
2023/08/17 03:40:02;;;;;;;4.20;3.90;;;22.30;99.90;;;;;;4993409;28;20439;-84
2023/08/17 03:42:42;;;;;;;5.00;4.60;;;21.40;99.90;;;;;;4993741;28;20459;-83
2023/08/17 03:45:21;;;;;;;4.37;4.07;;;21.70;99.90;;;;;;4993968;28;20467;-83
2023/08/17 03:48:07;;;;;;;4.30;4.00;;;21.60;99.90;;;;;;5000588;28;20436;-82
2023/08/17 03:50:58;;;;;;;4.97;4.57;;;21.90;99.90;;;;;;5001786;28;20505;-83
2023/08/17 03:54:00;;;;;;;4.33;3.93;;;22.20;99.90;;;;;;4997060;28;20573;-82
2023/08/17 03:59:28;;;;;;;4.03;3.73;;;21.60;99.90;;;;;;5089639;22;20493;-82
2023/08/17 04:02:10;;;;;;;4.70;4.30;;;21.80;99.90;;;;;;5035431;28;20473;-84
2023/08/17 04:05:05;;;;;;;4.87;4.47;;;21.60;99.90;;;;;;5042150;28;20487;-82
2023/08/17 04:08:01;;;;;;;4.27;3.90;;;21.70;99.90;;;;;;5017016;28;20443;-83
2023/08/17 04:10:31;;;;;;;4.60;4.20;;;20.60;99.90;;;;;;5005038;28;20454;-84
2023/08/17 04:13:09;;;;;;;4.67;4.30;;;22.10;99.90;;;;;;5006290;28;20548;-83
2023/08/17 04:15:38;;;;;;;5.53;4.93;;;21.50;99.90;;;;;;5059681;23;20470;-81
2023/08/17 04:18:05;;;;;;;5.47;5.03;;;21.90;99.90;;;;;;5020768;28;20472;-83
2023/08/17 04:23:34;;;;;;;5.50;5.10;;;21.80;99.90;;;;;;5032073;23;20486;-83
2023/08/17 04:26:16;;;;;;;5.57;5.13;;;21.80;99.90;;;;;;5007693;28;20495;-82
2023/08/17 04:28:53;;;;;;;5.83;5.43;;;21.70;99.90;;;;;;4995785;28;20551;-83
2023/08/17 04:31:36;;;;;;;6.30;5.80;;;22.00;99.90;;;;;;5000206;28;20832;-84
2023/08/17 04:34:20;;;;;;;5.93;5.43;;;21.70;99.90;;;;;;5003285;28;20469;-83
2023/08/17 04:37:33;;;;;;;6.40;5.13;;;21.60;99.90;;;;;;5008730;28;20466;-81
2023/08/17 04:43:11;;;;;;;;;;;;;;;;;;;;;
2023/08/17 04:51:16;;;;;;;6.80;6.10;;;21.30;99.90;;;;;;5284657;23;20496;-81
2023/08/17 04:54:06;;;;;;;8.60;7.90;;;21.80;99.90;;;;;;5071642;28;20500;-84
2023/08/17 04:59:25;;;;;;;6.23;5.73;;;21.50;99.90;;;;;;5154073;22;20508;-83
2023/08/17 05:02:03;;;;;;;6.47;5.83;;;22.00;99.90;;;;;;5048948;28;20540;-85
2023/08/17 05:04:36;;;;;;;7.70;5.50;;;22.40;99.90;;;;;;5047723;28;20465;-84
2023/08/17 05:07:33;;;;;;;6.03;5.53;;;21.70;99.90;;;;;;5050303;28;20453;-85
2023/08/17 05:10:23;;;;;;;5.20;4.77;;;21.30;99.90;;;;;;5036770;28;20538;-83
2023/08/17 05:15:50;;;;;;;5.73;5.00;;;21.50;99.90;;;;;;5179796;22;20562;-82
2023/08/17 05:18:48;;;;;;;5.40;5.00;;;21.30;99.90;;;;;;5031468;28;20433;-82
2023/08/17 05:21:26;;;;;;;5.63;4.90;;;20.30;99.90;;;;;;5039665;28;20424;-83
2023/08/17 05:23:55;;;;;;;5.50;5.10;;;21.30;99.90;;;;;;5103666;22;20534;-86
2023/08/17 05:26:39;;;;;;;4.63;4.23;;;21.00;99.90;;;;;;5044731;28;20530;-87
2023/08/17 05:29:57;;;;;;;4.90;4.50;;;21.50;99.90;;;;;;5041163;28;20526;-84
2023/08/17 05:32:43;;;;;;;4.87;4.47;;;21.30;99.90;;;;;;5033925;28;20484;-80
2023/08/17 05:35:38;;;;;;;4.50;4.10;;;21.60;99.90;;;;;;5043217;28;20548;-82
2023/08/17 05:38:19;;;;;;;6.00;5.27;;;21.90;99.90;;;;;;5032812;28;20557;-83
2023/08/17 05:41:05;;;;;;;5.57;5.17;;;21.40;99.90;;;;;;5041764;28;20424;-82
2023/08/17 05:44:14;;;;;;;5.17;4.67;;;21.80;99.90;;;;;;5035990;28;20457;-82
2023/08/17 05:46:41;;;;;;;4.63;4.30;;;21.90;99.90;;;;;;5040665;28;20477;-82
2023/08/17 05:49:16;;;;;;;6.73;6.23;;;21.30;99.90;;;;;;5034659;28;20496;-84
2023/08/17 05:52:22;;;;;;;6.13;5.63;;;21.70;99.90;;;;;;5041958;28;20454;-83
2023/08/17 05:55:32;;;;;;;;;;;;;;;;;;;;;
2023/08/17 05:58:20;;;;;;;5.67;5.27;;;21.00;99.90;;;;;;5032498;28;20507;-83
2023/08/17 06:01:07;;;;;;;5.90;5.43;;;21.40;99.90;;;;;;5029869;28;20465;-84
2023/08/17 06:03:40;;;;;;;5.90;5.30;;;21.70;99.90;;;;;;5023012;28;20488;-84
2023/08/17 06:15:30;;;;;;;6.40;5.90;;;21.30;99.90;;;;;;5722070;23;20543;-80
2023/08/17 06:18:00;;;;;;;7.10;6.33;;;21.50;99.90;;;;;;5063848;22;20427;-81
2023/08/17 06:20:27;;;;;;;6.80;6.10;;;21.40;99.90;;;;;;5015847;28;20454;-82
2023/08/17 06:25:24;;;;;;;7.67;6.97;;;21.70;99.90;;;;;;5108195;22;20808;-82
2023/08/17 06:27:51;;;;;;;7.40;6.70;;;23.10;99.90;;;;;;5011344;28;20459;-82
2023/08/17 06:38:23;;;;;;;7.80;6.93;;;21.60;99.90;;;;;;5738310;23;20863;-84
2023/08/17 06:40:52;;;;;;;6.67;6.17;;;21.60;99.90;;;;;;5530021;23;20917;-83
2023/08/17 06:43:28;;;;;;;5.87;5.37;;;21.20;99.90;;;;;;5149446;23;20490;-86
2023/08/17 06:45:56;;;;;;;6.43;5.63;;;21.70;99.90;;;;;;5015861;28;21464;-80
2023/08/17 06:48:23;;;;;;;9.07;6.33;;;22.00;99.90;;;;;;4993579;28;20541;-84
2023/08/17 06:50:52;;;;;;;6.40;5.90;;;21.70;99.90;;;;;;4997421;28;20443;-82
2023/08/17 06:53:19;;;;;;;6.77;6.07;;;21.80;99.90;;;;;;4992425;28;21745;-85
2023/08/17 06:55:48;;;;;;;6.70;6.10;;;21.60;99.90;;;;;;4992451;28;20699;-83
2023/08/17 06:58:17;;;;;;;7.63;6.17;;;21.70;99.90;;;;;;4991646;28;21273;-83
2023/08/17 07:00:45;;;;;;;6.80;6.20;;;21.90;99.90;;;;;;4991647;28;20471;-83
2023/08/17 07:03:15;;;;;;;6.63;6.07;;;21.80;99.90;;;;;;4993186;28;20547;-82
2023/08/17 07:05:43;;;;;;;8.40;7.10;;;21.80;99.90;;;;;;4992111;28;20475;-84
2023/08/17 07:08:10;;;;;;;7.20;6.50;;;21.70;99.90;;;;;;4991924;28;20479;-82
2023/08/17 07:10:39;;;;;;;7.47;6.77;;;21.80;99.90;;;;;;4995521;28;20463;-83
2023/08/17 07:13:06;;;;;;;7.90;7.10;;;21.70;99.90;;;;;;4988523;28;20543;-82
2023/08/17 07:15:34;;;;;;;7.27;6.57;;;21.60;99.90;;;;;;5004956;28;20537;-84
2023/08/17 07:18:00;;;;;;;7.53;6.80;;;21.80;99.90;;;;;;5005723;28;20678;-80
2023/08/17 07:20:27;;;;;;;9.03;7.40;;;21.70;99.90;;;;;;5006470;28;20447;-82
2023/08/17 07:22:54;;;;;;;8.80;6.87;;;21.80;99.90;;;;;;5008731;28;20470;-82
2023/08/17 07:25:21;;;;;;;6.67;6.07;;;21.90;99.90;;;;;;5009993;28;20445;-81
2023/08/17 07:27:52;;;;;;;7.37;6.67;;;22.30;99.90;;;;;;5009528;28;20427;-81
2023/08/17 07:30:19;;;;;;;7.57;6.83;;;22.00;99.90;;;;;;5011595;28;20432;-83
2023/08/17 07:32:46;;;;;;;9.53;7.60;;;22.30;99.90;;;;;;5012772;28;20479;-84
2023/08/17 07:35:20;;;;;;;8.00;7.20;;;22.20;99.90;;;;;;5010366;28;20521;-80
2023/08/17 07:37:47;;;;;;;7.97;6.87;;;22.00;99.90;;;;;;5011242;28;20463;-81
2023/08/17 07:40:30;;;;;;;8.57;7.67;;;22.00;99.90;;;;;;5011323;28;20478;-82
2023/08/17 07:42:57;;;;;;;10.20;7.27;;;22.00;99.90;;;;;;5025203;28;20503;-83
2023/08/17 07:45:24;;;;;;;9.03;7.60;;;22.30;99.90;;;;;;5003530;28;20551;-83
2023/08/17 07:47:51;;;;;;;8.77;6.93;;;22.30;99.90;;;;;;4992457;28;20458;-81
2023/08/17 07:50:18;;;;;;;8.63;7.83;;;22.30;99.90;;;;;;5002748;28;20474;-82
2023/08/17 07:52:45;;;;;;;7.97;7.20;;;22.20;99.90;;;;;;4994578;28;20472;-82
2023/08/17 07:57:53;;;;;;;8.30;6.67;;;22.40;99.90;;;;;;4988600;22;20482;-84
2023/08/17 08:00:21;;;;;;;9.33;7.03;;;22.30;99.90;;;;;;4975662;28;20451;-82
2023/08/17 08:02:48;;;;;;;8.33;6.90;;;21.90;99.90;;;;;;4973689;28;20540;-83
2023/08/17 08:05:18;;;;;;;9.57;7.77;;;22.40;99.90;;;;;;4983276;28;20529;-82
2023/08/17 08:07:50;;;;;;;9.23;8.33;;;22.10;99.90;;;;;;5218995;22;20461;-83
2023/08/17 08:10:17;;;;;;;9.00;7.13;;;21.80;99.90;;;;;;5046993;28;20458;-82
2023/08/17 08:12:44;;;;;;;9.27;7.40;;;21.70;99.90;;;;;;5046039;28;20472;-82
2023/08/17 08:15:14;;;;;;;9.30;8.33;;;22.60;99.90;;;;;;5046649;28;20453;-82
2023/08/17 08:17:41;;;;;;;11.53;7.70;;;22.10;99.90;;;;;;5035839;28;20700;-82
2023/08/17 08:20:12;;;;;;;9.20;7.67;;;22.50;99.90;;;;;;5035426;28;20456;-80
2023/08/17 08:22:41;;;;;;;8.60;7.30;;;21.20;99.90;;;;;;5022958;28;20644;-82
2023/08/17 08:25:08;;;;;;;8.50;7.60;;;22.90;99.90;;;;;;5019006;28;20464;-82
2023/08/17 08:27:36;;;;;;;8.93;7.10;;;23.10;99.90;;;;;;5033640;28;20586;-83
2023/08/17 08:30:05;;;;;;;8.93;8.07;;;21.90;99.90;;;;;;5023514;28;20469;-83
2023/08/17 08:32:32;;;;;;;9.73;7.20;;;22.30;99.90;;;;;;5029150;28;20464;-80
2023/08/17 08:34:59;;;;;;;9.67;7.90;;;23.00;99.90;;;;;;5038073;28;20505;-82
2023/08/17 08:37:27;;;;;;;8.30;7.50;;;23.00;99.90;;;;;;5039142;28;20473;-84
2023/08/17 08:39:55;;;;;;;9.00;7.50;;;22.30;99.90;;;;;;5030100;28;20445;-85
2023/08/17 08:42:23;;;;;;;9.80;7.20;;;22.60;99.90;;;;;;5030033;28;20454;-82
2023/08/17 08:44:50;;;;;;;11.23;8.20;;;22.50;99.90;;;;;;5028243;28;20496;-85
2023/08/17 08:47:18;;;;;;;10.90;8.83;;;23.00;99.90;;;;;;5031358;28;21083;-84
2023/08/17 08:50:05;;;;;;;8.23;7.50;;;22.60;99.90;;;;;;5050851;28;20444;-82
2023/08/17 08:52:42;;;;;;;11.30;9.20;;;22.40;99.90;;;;;;5048520;28;20472;-82
2023/08/17 08:55:15;;;;;;;10.03;7.80;;;22.30;99.90;;;;;;5040225;28;20532;-81
2023/08/17 08:57:43;;;;;;;12.50;8.63;;;22.50;99.90;;;;;;5020920;28;20449;-80
2023/08/17 09:00:12;;;;;;;12.47;7.97;;;22.30;99.90;;;;;;5022279;28;20453;-82
2023/08/17 09:02:40;;;;;;;11.80;8.47;;;22.30;99.90;;;;;;5018437;28;20634;-80
2023/08/17 09:05:10;;;;;;;10.03;8.40;;;22.80;99.90;;;;;;5017974;28;20454;-81
2023/08/17 09:07:40;;;;;;;9.27;8.27;;;22.70;99.90;;;;;;5016404;28;20464;-79
2023/08/17 09:10:10;;;;;;;9.87;8.87;;;22.70;99.90;;;;;;5018136;28;21059;-80
2023/08/17 09:12:38;;;;;;;9.37;8.40;;;23.00;99.90;;;;;;5026756;28;20491;-81
2023/08/17 09:15:08;;;;;;;11.17;8.27;;;22.90;99.90;;;;;;5028139;28;20488;-82
2023/08/17 09:17:35;;;;;;;10.60;9.47;;;22.80;99.90;;;;;;5029687;28;21147;-83
2023/08/17 09:20:03;;;;;;;12.30;8.27;;;23.00;99.90;;;;;;5033132;28;20440;-84
2023/08/17 09:22:41;;;;;;;21.13;14.40;;;22.60;99.90;;;;;;5036693;28;20475;-83
2023/08/17 09:25:21;;;;;;;10.67;8.93;;;22.70;99.90;;;;;;5035563;28;20482;-83
2023/08/17 09:27:48;;;;;;;11.00;9.80;;;22.60;99.90;;;;;;5033705;28;20449;-85
2023/08/17 09:30:18;;;;;;;11.80;9.57;;;23.00;99.90;;;;;;5030514;28;20449;-83
2023/08/17 09:32:47;;;;;;;10.43;9.10;;;23.20;99.90;;;;;;5033637;28;20441;-81
2023/08/17 09:35:14;;;;;;;12.57;8.90;;;23.20;99.90;;;;;;5026953;28;20563;-84
2023/08/17 09:37:41;;;;;;;12.77;10.93;;;23.20;99.90;;;;;;5028361;28;20449;-83
2023/08/17 09:40:08;;;;;;;11.53;10.10;;;23.40;99.90;;;;;;5029380;28;20468;-84
2023/08/17 09:42:36;;;;;;;13.90;12.33;;;23.20;99.90;;;;;;5026773;28;20519;-82
2023/08/17 09:45:04;;;;;;;15.30;11.27;;;23.00;99.90;;;;;;5026056;28;21080;-84
2023/08/17 09:47:31;;;;;;;12.93;11.60;;;22.70;99.90;;;;;;5027100;28;20468;-82
2023/08/17 09:49:58;;;;;;;13.03;11.70;;;22.60;99.90;;;;;;5029369;28;20469;-82
2023/08/17 09:52:25;;;;;;;16.10;12.70;;;22.50;99.90;;;;;;5028506;28;20461;-82
2023/08/17 09:54:54;;;;;;;15.37;11.93;;;23.00;99.90;;;;;;5029742;28;20485;-81
2023/08/17 09:57:23;;;;;;;16.63;13.37;;;22.70;99.90;;;;;;5027148;28;20552;-83
2023/08/17 09:59:51;;;;;;;14.57;13.07;;;23.50;99.90;;;;;;5027514;28;20470;-83
2023/08/17 10:02:23;;;;;;;15.80;13.23;;;23.00;99.90;;;;;;5025305;28;20456;-82
2023/08/17 10:04:57;;;;;;;15.33;13.83;;;22.90;99.90;;;;;;5025186;28;20461;-81
2023/08/17 10:07:30;;;;;;;14.60;13.13;;;23.50;99.90;;;;;;5025014;28;21753;-82
2023/08/17 10:10:04;;;;;;;16.87;15.17;;;23.70;99.90;;;;;;5025924;28;20480;-82
2023/08/17 10:12:42;;;;;;;14.23;12.63;;;23.50;99.90;;;;;;5026743;28;20830;-82
2023/08/17 10:15:11;;;;;;;15.37;13.80;;;23.40;99.90;;;;;;5033263;28;20991;-82
2023/08/17 10:17:46;;;;;;;13.20;11.97;;;23.40;99.90;;;;;;5027673;28;20470;-83
2023/08/17 10:20:14;;;;;;;13.17;11.77;;;23.70;99.90;;;;;;5024244;28;20472;-83
2023/08/17 10:23:22;;;;;;;12.67;11.40;;;23.40;99.90;;;;;;5031493;28;20464;-83
2023/08/17 10:25:50;;;;;;;13.33;11.23;;;23.20;99.90;;;;;;5026410;28;20577;-83
2023/08/17 10:28:17;;;;;;;13.77;12.30;;;23.10;99.90;;;;;;5031252;28;20469;-82
2023/08/17 10:30:45;;;;;;;12.60;11.30;;;23.70;99.90;;;;;;5029077;28;20545;-82
2023/08/17 10:33:12;;;;;;;12.00;10.90;;;23.40;99.90;;;;;;5033915;28;20438;-83
2023/08/17 10:35:40;;;;;;;12.33;11.13;;;23.70;99.90;;;;;;5046919;28;20496;-83
2023/08/17 10:38:07;;;;;;;12.70;11.40;;;23.60;99.90;;;;;;5049259;28;20460;-82
2023/08/17 10:40:41;;;;;;;12.60;11.40;;;23.90;99.90;;;;;;5029656;28;20511;-81
2023/08/17 10:43:08;;;;;;;15.40;11.53;;;23.70;99.90;;;;;;5034896;28;20446;-83
2023/08/17 10:45:38;;;;;;;12.57;11.33;;;23.90;99.90;;;;;;5062042;28;20488;-82
2023/08/17 10:48:08;;;;;;;11.77;10.53;;;23.40;99.90;;;;;;5033514;28;20457;-82
2023/08/17 10:50:36;;;;;;;11.30;10.10;;;23.40;99.90;;;;;;5034196;28;20450;-81
2023/08/17 10:53:11;;;;;;;10.90;9.80;;;23.20;99.90;;;;;;5032785;28;20461;-83
2023/08/17 10:55:58;;;;;;;10.80;9.70;;;23.40;99.90;;;;;;5032722;28;20521;-83
2023/08/17 10:58:25;;;;;;;10.43;9.33;;;23.50;99.90;;;;;;5023721;28;20453;-81
2023/08/17 11:00:56;;;;;;;13.07;10.70;;;23.80;99.90;;;;;;5023338;28;20460;-83
2023/08/17 11:03:27;;;;;;;11.20;10.10;;;23.40;99.90;;;;;;5021256;28;20491;-83
2023/08/17 11:05:57;;;;;;;12.90;10.57;;;24.10;99.90;;;;;;5025193;28;20843;-83
2023/08/17 11:08:32;;;;;;;12.13;10.90;;;24.00;99.90;;;;;;5025180;28;20450;-81
2023/08/17 11:11:03;;;;;;;10.10;9.10;;;23.90;99.90;;;;;;5025498;28;20437;-84
2023/08/17 11:13:32;;;;;;;11.17;10.00;;;23.50;99.90;;;;;;5026253;28;20543;-82
2023/08/17 11:16:00;;;;;;;10.90;9.80;;;23.50;99.90;;;;;;5032525;28;21244;-83
2023/08/17 11:18:29;;;;;;;13.03;10.30;;;23.60;99.90;;;;;;5035314;28;20450;-83
2023/08/17 11:20:57;;;;;;;10.30;9.30;;;23.70;99.90;;;;;;5033406;28;20462;-82
2023/08/17 11:23:24;;;;;;;11.70;10.70;;;23.90;99.90;;;;;;5032981;28;20468;-79
2023/08/17 11:25:55;;;;;;;10.47;9.37;;;24.10;99.90;;;;;;5029033;28;20473;-83
2023/08/17 11:28:23;;;;;;;10.67;9.67;;;24.10;99.90;;;;;;5038743;28;20531;-83
2023/08/17 11:31:01;;;;;;;7.70;7.00;;;24.60;99.90;;;;;;5026465;28;20507;-81
2023/08/17 11:33:30;;;;;;;8.50;7.63;;;25.20;99.90;;;;;;5033211;28;20452;-83
2023/08/17 11:35:58;;;;;;;8.10;7.50;;;25.70;99.90;;;;;;5030371;28;20491;-84
2023/08/17 11:38:32;;;;;;;8.23;7.50;;;26.30;99.60;;;;;;5015437;28;20465;-83
2023/08/17 11:41:03;;;;;;;8.20;7.50;;;26.20;98.50;;;;;;5033522;28;20448;-83
2023/08/17 11:43:33;;;;;;;7.43;6.73;;;26.10;98.80;;;;;;5034772;28;20496;-85
2023/08/17 11:46:02;;;;;;;9.53;7.40;;;26.30;98.40;;;;;;5023325;28;20536;-82
2023/08/17 11:48:30;;;;;;;8.00;7.33;;;26.10;98.60;;;;;;5017867;28;20523;-84
2023/08/17 11:51:03;;;;;;;8.10;7.40;;;26.70;97.70;;;;;;5016738;28;20478;-82
2023/08/17 11:53:34;;;;;;;9.60;8.70;;;26.30;97.80;;;;;;5022000;28;20464;-84
2023/08/17 11:56:02;;;;;;;10.33;9.43;;;26.50;98.30;;;;;;5034822;28;20685;-81
2023/08/17 11:58:47;;;;;;;9.87;8.87;;;26.20;98.00;;;;;;5034699;28;20464;-83
2023/08/17 12:01:18;;;;;;;12.83;10.80;;;26.10;98.90;;;;;;5031633;28;20466;-84
2023/08/17 12:03:45;;;;;;;8.87;7.97;;;25.80;99.40;;;;;;5027463;28;20459;-82
2023/08/17 12:06:13;;;;;;;9.40;8.40;;;25.50;99.60;;;;;;5024969;28;20480;-83
2023/08/17 12:08:45;;;;;;;8.97;8.10;;;25.60;99.50;;;;;;5025847;28;20948;-83
2023/08/17 12:11:19;;;;;;;9.27;8.37;;;25.30;99.30;;;;;;5027676;28;20465;-83
2023/08/17 12:13:53;;;;;;;8.53;7.77;;;25.80;99.90;;;;;;5024746;28;20549;-85
2023/08/17 12:16:22;;;;;;;8.87;8.00;;;25.90;99.90;;;;;;5025439;28;20473;-83
2023/08/17 12:18:50;;;;;;;8.47;7.60;;;26.30;99.70;;;;;;5040061;28;20469;-83
2023/08/17 12:21:21;;;;;;;7.90;7.20;;;26.40;99.30;;;;;;5026579;28;20507;-82
2023/08/17 12:23:51;;;;;;;8.43;7.63;;;26.10;98.40;;;;;;5027337;28;20723;-82
2023/08/17 12:26:24;;;;;;;8.60;7.80;;;26.30;98.60;;;;;;5033152;28;20497;-84
2023/08/17 12:28:51;;;;;;;8.00;7.30;;;25.90;99.30;;;;;;5032011;28;20470;-83
2023/08/17 12:31:25;;;;;;;8.60;7.43;;;24.90;99.00;;;;;;5029763;28;20515;-83
2023/08/17 12:33:52;;;;;;;8.20;7.43;;;26.70;99.30;;;;;;5030619;28;20480;-84
2023/08/17 12:36:23;;;;;;;8.20;7.40;;;27.50;99.20;;;;;;5034487;28;20500;-84
2023/08/17 12:38:50;;;;;;;7.90;7.20;;;26.30;98.50;;;;;;5038881;28;20444;-83
2023/08/17 12:41:20;;;;;;;9.80;8.90;;;26.00;99.70;;;;;;5040250;28;20437;-81
2023/08/17 12:43:47;;;;;;;9.00;8.10;;;26.60;99.90;;;;;;5036937;28;20520;-81
2023/08/17 12:46:16;;;;;;;9.07;8.07;;;26.10;99.10;;;;;;5042430;28;20506;-83
2023/08/17 12:48:43;;;;;;;10.93;9.83;;;25.90;99.90;;;;;;5050374;28;20547;-82
2023/08/17 12:51:10;;;;;;;8.30;7.60;;;25.80;99.90;;;;;;5039122;28;20485;-82
2023/08/17 12:53:37;;;;;;;11.43;10.43;;;25.50;99.90;;;;;;5038276;28;20828;-83
2023/08/17 12:56:04;;;;;;;11.63;10.53;;;25.60;99.90;;;;;;5040624;28;20519;-82
2023/08/17 12:58:34;;;;;;;10.50;9.60;;;25.50;99.90;;;;;;5041075;28;20481;-83
2023/08/17 13:01:05;;;;;;;11.50;10.40;;;25.10;99.90;;;;;;5042756;28;20471;-81
2023/08/17 13:03:33;;;;;;;11.27;10.17;;;25.20;99.90;;;;;;5046296;28;20452;-86
2023/08/17 13:06:00;;;;;;;10.57;9.57;;;25.00;99.90;;;;;;5041270;28;20501;-84
2023/08/17 13:08:30;;;;;;;10.60;9.60;;;25.10;99.90;;;;;;5036497;28;20512;-84
2023/08/17 13:10:57;;;;;;;11.10;9.90;;;25.60;99.90;;;;;;5034483;28;20466;-83
2023/08/17 13:13:24;;;;;;;11.67;10.27;;;24.90;99.90;;;;;;5034002;28;20980;-85
2023/08/17 13:15:51;;;;;;;10.20;9.20;;;25.00;99.90;;;;;;5035199;28;20491;-82
2023/08/17 13:18:19;;;;;;;12.20;10.10;;;24.30;99.90;;;;;;5034010;28;20520;-83
2023/08/17 13:20:46;;;;;;;11.20;10.10;;;25.60;99.90;;;;;;5034881;28;20483;-83
2023/08/17 13:23:14;;;;;;;11.60;10.40;;;25.00;99.90;;;;;;5033635;28;20557;-80
2023/08/17 13:25:44;;;;;;;12.10;10.10;;;25.90;99.90;;;;;;5041338;28;20449;-83
2023/08/17 13:28:13;;;;;;;10.87;9.77;;;25.20;99.90;;;;;;5049244;28;20496;-82
2023/08/17 13:30:40;;;;;;;10.20;9.10;;;25.50;99.90;;;;;;5044919;28;20465;-83
2023/08/17 13:33:07;;;;;;;10.17;9.27;;;25.10;99.90;;;;;;5042691;28;20561;-82
2023/08/17 13:35:35;;;;;;;10.30;9.27;;;25.10;99.90;;;;;;5041289;28;20500;-81
2023/08/17 13:38:05;;;;;;;11.13;9.87;;;25.20;99.90;;;;;;5038197;28;21312;-84
2023/08/17 13:40:33;;;;;;;11.43;10.43;;;25.40;99.90;;;;;;5038993;28;20447;-82
2023/08/17 13:43:02;;;;;;;11.90;9.97;;;25.40;99.90;;;;;;5036985;28;21142;-84
2023/08/17 13:45:29;;;;;;;11.37;9.73;;;25.70;99.90;;;;;;5034590;28;20524;-84
2023/08/17 13:47:59;;;;;;;11.43;10.00;;;26.40;99.90;;;;;;5033383;28;20452;-82
2023/08/17 13:50:29;;;;;;;9.77;8.90;;;25.60;99.90;;;;;;5047577;28;20474;-83
2023/08/17 13:53:00;;;;;;;10.30;9.30;;;26.00;99.80;;;;;;5033374;28;21551;-85
2023/08/17 13:55:28;;;;;;;10.03;9.13;;;26.40;99.70;;;;;;5031876;28;20976;-83
2023/08/17 13:57:55;;;;;;;9.57;8.67;;;26.50;99.10;;;;;;5034525;28;20442;-84
2023/08/17 14:00:22;;;;;;;9.50;8.60;;;26.70;99.60;;;;;;5039947;28;20523;-81
2023/08/17 14:02:49;;;;;;;9.90;8.90;;;26.60;99.30;;;;;;5034092;28;20484;-82
2023/08/17 14:05:17;;;;;;;10.87;9.77;;;26.90;99.30;;;;;;5030269;28;20529;-81
2023/08/17 14:07:44;;;;;;;11.67;10.57;;;26.60;99.80;;;;;;5017370;28;20448;-81